sensor_id;sensor_type;location;lat;lon;timestamp;pressure;altitude;pressure_sealevel;temperature;humidity
64711;BME280;51139;45.626;6.850;2022-09-09T00:01:09;82115.09;;;10.71;64.88
64711;BME280;51139;45.626;6.850;2022-09-09T00:03:43;82111.47;;;10.67;65.15
64711;BME280;51139;45.626;6.850;2022-09-09T00:06:21;82114.56;;;10.55;65.16
64711;BME280;51139;45.626;6.850;2022-09-09T00:11:45;82109.50;;;10.04;66.78
64711;BME280;51139;45.626;6.850;2022-09-09T00:16:53;82111.59;;;10.06;67.74
64711;BME280;51139;45.626;6.850;2022-09-09T00:19:28;82109.63;;;10.42;66.58
64711;BME280;51139;45.626;6.850;2022-09-09T00:22:08;82108.97;;;10.69;64.58
64711;BME280;51139;45.626;6.850;2022-09-09T00:24:44;82108.13;;;11.03;64.06
64711;BME280;51139;45.626;6.850;2022-09-09T00:27:23;82100.16;;;11.41;63.12
64711;BME280;51139;45.626;6.850;2022-09-09T00:32:36;82097.72;;;11.15;64.32
64711;BME280;51139;45.626;6.850;2022-09-09T00:37:42;82100.06;;;11.11;65.10
64711;BME280;51139;45.626;6.850;2022-09-09T00:42:51;82104.59;;;11.38;64.77
64711;BME280;51139;45.626;6.850;2022-09-09T00:45:38;82110.00;;;11.77;62.83
64711;BME280;51139;45.626;6.850;2022-09-09T00:48:11;82106.03;;;11.49;63.44
64711;BME280;51139;45.626;6.850;2022-09-09T00:51:21;82111.25;;;11.66;63.54
64711;BME280;51139;45.626;6.850;2022-09-09T00:54:05;82100.28;;;12.29;61.22
64711;BME280;51139;45.626;6.850;2022-09-09T00:57:51;82096.94;;;12.29;60.99
64711;BME280;51139;45.626;6.850;2022-09-09T01:00:14;82096.66;;;12.44;60.16
64711;BME280;51139;45.626;6.850;2022-09-09T01:08:42;82099.75;;;12.40;60.04
64711;BME280;51139;45.626;6.850;2022-09-09T01:11:25;82090.50;;;12.02;61.99
64711;BME280;51139;45.626;6.850;2022-09-09T01:14:18;82083.59;;;11.60;62.90
64711;BME280;51139;45.626;6.850;2022-09-09T01:16:50;82086.13;;;11.77;62.83
64711;BME280;51139;45.626;6.850;2022-09-09T01:19:24;82084.63;;;12.14;61.64
64711;BME280;51139;45.626;6.850;2022-09-09T01:22:44;82081.09;;;11.91;61.70
64711;BME280;51139;45.626;6.850;2022-09-09T01:28:10;82072.59;;;12.52;59.07
64711;BME280;51139;45.626;6.850;2022-09-09T01:30:39;82073.16;;;11.81;58.93
64711;BME280;51139;45.626;6.850;2022-09-09T01:33:13;82084.44;;;11.52;60.21
64711;BME280;51139;45.626;6.850;2022-09-09T01:35:47;82083.75;;;11.62;61.10
64711;BME280;51139;45.626;6.850;2022-09-09T01:38:16;82079.44;;;11.86;62.94
64711;BME280;51139;45.626;6.850;2022-09-09T01:40:42;82081.41;;;11.95;62.97
64711;BME280;51139;45.626;6.850;2022-09-09T01:43:08;82077.59;;;11.79;63.27
64711;BME280;51139;45.626;6.850;2022-09-09T01:45:34;82078.88;;;11.88;63.07
64711;BME280;51139;45.626;6.850;2022-09-09T01:48:00;82076.91;;;11.68;63.46
64711;BME280;51139;45.626;6.850;2022-09-09T01:50:27;82070.91;;;11.68;63.13
64711;BME280;51139;45.626;6.850;2022-09-09T01:52:56;82068.59;;;12.02;62.09
64711;BME280;51139;45.626;6.850;2022-09-09T01:59:06;82065.47;;;11.86;61.36
64711;BME280;51139;45.626;6.850;2022-09-09T02:09:53;82064.63;;;11.83;60.25
64711;BME280;51139;45.626;6.850;2022-09-09T02:12:24;82055.38;;;10.98;63.60
64711;BME280;51139;45.626;6.850;2022-09-09T02:14:56;82056.13;;;10.71;65.58
64711;BME280;51139;45.626;6.850;2022-09-09T02:17:28;82048.91;;;10.81;64.69
64711;BME280;51139;45.626;6.850;2022-09-09T02:20:07;82055.72;;;11.21;63.59
64711;BME280;51139;45.626;6.850;2022-09-09T02:22:35;82052.97;;;11.29;63.29
64711;BME280;51139;45.626;6.850;2022-09-09T02:25:07;82053.59;;;11.87;61.85
64711;BME280;51139;45.626;6.850;2022-09-09T02:27:34;82049.69;;;12.37;59.94
64711;BME280;51139;45.626;6.850;2022-09-09T02:30:01;82059.03;;;12.58;59.34
64711;BME280;51139;45.626;6.850;2022-09-09T02:32:29;82061.00;;;12.57;59.23
64711;BME280;51139;45.626;6.850;2022-09-09T02:35:02;82065.63;;;12.37;59.63
64711;BME280;51139;45.626;6.850;2022-09-09T02:37:37;82072.78;;;12.05;61.04
64711;BME280;51139;45.626;6.850;2022-09-09T02:40:05;82078.91;;;12.37;60.43
64711;BME280;51139;45.626;6.850;2022-09-09T02:42:31;82073.44;;;12.35;59.92
64711;BME280;51139;45.626;6.850;2022-09-09T02:44:57;82078.06;;;12.24;60.85
64711;BME280;51139;45.626;6.850;2022-09-09T02:47:35;82074.56;;;12.32;60.81
64711;BME280;51139;45.626;6.850;2022-09-09T02:58:04;82073.50;;;10.64;67.61
64711;BME280;51139;45.626;6.850;2022-09-09T03:00:31;82071.59;;;10.74;67.00
64711;BME280;51139;45.626;6.850;2022-09-09T03:02:57;82070.13;;;10.91;66.59
64711;BME280;51139;45.626;6.850;2022-09-09T03:05:23;82060.31;;;11.11;65.62
64711;BME280;51139;45.626;6.850;2022-09-09T03:07:48;82064.53;;;11.24;65.72
64711;BME280;51139;45.626;6.850;2022-09-09T03:10:15;82066.69;;;11.55;64.24
64711;BME280;51139;45.626;6.850;2022-09-09T03:12:41;82067.91;;;11.44;63.40
64711;BME280;51139;45.626;6.850;2022-09-09T03:15:07;82065.97;;;11.45;63.13
64711;BME280;51139;45.626;6.850;2022-09-09T03:17:32;82054.31;;;11.11;64.11
64711;BME280;51139;45.626;6.850;2022-09-09T03:19:58;82049.25;;;11.62;62.64
64711;BME280;51139;45.626;6.850;2022-09-09T03:22:24;82051.91;;;11.81;61.66
64711;BME280;51139;45.626;6.850;2022-09-09T03:24:51;82049.81;;;11.80;61.28
64711;BME280;51139;45.626;6.850;2022-09-09T03:27:16;82052.75;;;11.94;60.32
64711;BME280;51139;45.626;6.850;2022-09-09T03:29:42;82048.03;;;12.02;60.18
64711;BME280;51139;45.626;6.850;2022-09-09T03:32:08;82049.97;;;11.92;60.63
64711;BME280;51139;45.626;6.850;2022-09-09T03:34:36;82053.34;;;12.02;60.05
64711;BME280;51139;45.626;6.850;2022-09-09T03:37:04;82047.50;;;12.04;59.75
64711;BME280;51139;45.626;6.850;2022-09-09T03:39:30;82051.91;;;11.72;60.73
64711;BME280;51139;45.626;6.850;2022-09-09T03:41:56;82050.66;;;11.73;61.14
64711;BME280;51139;45.626;6.850;2022-09-09T03:44:21;82042.25;;;11.47;61.38
64711;BME280;51139;45.626;6.850;2022-09-09T03:46:46;82040.84;;;11.46;61.80
64711;BME280;51139;45.626;6.850;2022-09-09T03:49:12;82038.31;;;11.38;62.24
64711;BME280;51139;45.626;6.850;2022-09-09T03:51:37;82041.72;;;11.68;60.99
64711;BME280;51139;45.626;6.850;2022-09-09T03:54:03;82032.78;;;11.83;60.02
64711;BME280;51139;45.626;6.850;2022-09-09T03:56:30;82040.16;;;11.55;60.69
64711;BME280;51139;45.626;6.850;2022-09-09T03:58:56;82036.91;;;11.27;62.19
64711;BME280;51139;45.626;6.850;2022-09-09T04:01:22;82042.81;;;11.75;60.64
64711;BME280;51139;45.626;6.850;2022-09-09T04:03:48;82032.81;;;12.03;59.33
64711;BME280;51139;45.626;6.850;2022-09-09T04:06:13;82039.19;;;11.80;60.51
64711;BME280;51139;45.626;6.850;2022-09-09T04:08:40;82049.97;;;11.72;60.68
64711;BME280;51139;45.626;6.850;2022-09-09T04:11:06;82039.75;;;11.68;60.29
64711;BME280;51139;45.626;6.850;2022-09-09T04:13:36;82037.16;;;10.74;63.47
64711;BME280;51139;45.626;6.850;2022-09-09T04:16:05;82037.81;;;10.37;64.97
64711;BME280;51139;45.626;6.850;2022-09-09T04:18:32;82043.94;;;10.58;64.82
64711;BME280;51139;45.626;6.850;2022-09-09T04:20:57;82039.31;;;11.43;61.55
64711;BME280;51139;45.626;6.850;2022-09-09T04:23:25;82036.94;;;11.47;61.14
64711;BME280;51139;45.626;6.850;2022-09-09T04:25:52;82042.75;;;11.16;61.91
64711;BME280;51139;45.626;6.850;2022-09-09T04:28:20;82039.28;;;11.33;62.09
64711;BME280;51139;45.626;6.850;2022-09-09T04:30:46;82040.56;;;11.42;61.69
64711;BME280;51139;45.626;6.850;2022-09-09T04:33:13;82039.63;;;11.66;60.13
64711;BME280;51139;45.626;6.850;2022-09-09T04:35:43;82035.53;;;11.46;61.28
64711;BME280;51139;45.626;6.850;2022-09-09T04:38:09;82044.63;;;11.62;60.09
64711;BME280;51139;45.626;6.850;2022-09-09T04:40:34;82047.28;;;11.62;59.56
64711;BME280;51139;45.626;6.850;2022-09-09T04:43:01;82046.72;;;11.54;60.69
64711;BME280;51139;45.626;6.850;2022-09-09T04:45:28;82047.16;;;11.03;62.10
64711;BME280;51139;45.626;6.850;2022-09-09T04:47:54;82048.75;;;10.79;62.68
64711;BME280;51139;45.626;6.850;2022-09-09T04:50:20;82052.78;;;10.25;64.85
64711;BME280;51139;45.626;6.850;2022-09-09T04:52:46;82048.06;;;10.06;66.38
64711;BME280;51139;45.626;6.850;2022-09-09T04:55:11;82049.63;;;10.09;66.32
64711;BME280;51139;45.626;6.850;2022-09-09T04:57:38;82051.81;;;10.20;65.68
64711;BME280;51139;45.626;6.850;2022-09-09T05:00:04;82050.53;;;9.94;66.23
64711;BME280;51139;45.626;6.850;2022-09-09T05:02:29;82056.03;;;9.88;66.48
64711;BME280;51139;45.626;6.850;2022-09-09T05:04:55;82049.47;;;10.07;66.09
64711;BME280;51139;45.626;6.850;2022-09-09T05:07:21;82056.56;;;10.77;63.34
64711;BME280;51139;45.626;6.850;2022-09-09T05:09:46;82060.06;;;10.79;62.51
64711;BME280;51139;45.626;6.850;2022-09-09T05:12:14;82054.59;;;11.15;61.20
64711;BME280;51139;45.626;6.850;2022-09-09T05:14:42;82053.19;;;10.67;61.79
64711;BME280;51139;45.626;6.850;2022-09-09T05:17:07;82060.81;;;9.72;67.24
64711;BME280;51139;45.626;6.850;2022-09-09T05:19:32;82056.03;;;9.88;67.72
64711;BME280;51139;45.626;6.850;2022-09-09T05:21:58;82052.53;;;10.03;67.36
64711;BME280;51139;45.626;6.850;2022-09-09T05:24:23;82055.88;;;10.04;67.02
64711;BME280;51139;45.626;6.850;2022-09-09T05:26:49;82057.06;;;9.93;67.43
64711;BME280;51139;45.626;6.850;2022-09-09T05:29:14;82047.09;;;10.01;67.34
64711;BME280;51139;45.626;6.850;2022-09-09T05:31:40;82049.50;;;9.89;67.12
64711;BME280;51139;45.626;6.850;2022-09-09T05:34:06;82055.34;;;10.33;65.89
64711;BME280;51139;45.626;6.850;2022-09-09T05:36:31;82054.97;;;10.64;65.13
64711;BME280;51139;45.626;6.850;2022-09-09T05:38:57;82055.63;;;10.55;65.26
64711;BME280;51139;45.626;6.850;2022-09-09T05:41:23;82056.00;;;10.51;65.88
64711;BME280;51139;45.626;6.850;2022-09-09T05:43:49;82067.69;;;10.65;65.20
64711;BME280;51139;45.626;6.850;2022-09-09T05:46:19;82063.41;;;10.53;64.94
64711;BME280;51139;45.626;6.850;2022-09-09T05:48:47;82062.31;;;10.56;65.31
64711;BME280;51139;45.626;6.850;2022-09-09T05:51:20;82068.88;;;10.92;63.34
64711;BME280;51139;45.626;6.850;2022-09-09T05:53:47;82073.50;;;10.64;65.44
64711;BME280;51139;45.626;6.850;2022-09-09T05:56:21;82069.38;;;10.71;64.89
64711;BME280;51139;45.626;6.850;2022-09-09T05:58:50;82075.19;;;10.42;66.60
64711;BME280;51139;45.626;6.850;2022-09-09T06:01:31;82075.28;;;10.89;64.99
64711;BME280;51139;45.626;6.850;2022-09-09T06:03:57;82074.47;;;11.33;63.12
64711;BME280;51139;45.626;6.850;2022-09-09T06:06:25;82069.09;;;11.61;62.15
64711;BME280;51139;45.626;6.850;2022-09-09T06:08:52;82072.81;;;11.48;62.65
64711;BME280;51139;45.626;6.850;2022-09-09T06:11:20;82076.47;;;11.52;63.20
64711;BME280;51139;45.626;6.850;2022-09-09T06:13:47;82074.25;;;11.68;62.45
64711;BME280;51139;45.626;6.850;2022-09-09T06:16:15;82067.25;;;11.63;62.55
64711;BME280;51139;45.626;6.850;2022-09-09T06:18:42;82075.44;;;11.28;63.64
64711;BME280;51139;45.626;6.850;2022-09-09T06:21:28;82079.47;;;10.55;66.75
64711;BME280;51139;45.626;6.850;2022-09-09T06:23:55;82077.41;;;10.90;66.02
64711;BME280;51139;45.626;6.850;2022-09-09T06:26:26;82071.66;;;10.84;66.80
64711;BME280;51139;45.626;6.850;2022-09-09T06:28:53;82068.16;;;10.82;67.23
64711;BME280;51139;45.626;6.850;2022-09-09T06:31:24;82072.91;;;10.56;68.10
64711;BME280;51139;45.626;6.850;2022-09-09T06:33:51;82077.06;;;10.76;68.27
64711;BME280;51139;45.626;6.850;2022-09-09T06:36:21;82075.06;;;11.51;66.21
64711;BME280;51139;45.626;6.850;2022-09-09T06:38:47;82074.00;;;12.33;63.51
64711;BME280;51139;45.626;6.850;2022-09-09T06:41:15;82064.72;;;12.83;61.31
64711;BME280;51139;45.626;6.850;2022-09-09T06:43:41;82070.56;;;13.33;59.95
64711;BME280;51139;45.626;6.850;2022-09-09T06:46:10;82065.16;;;12.70;60.20
64711;BME280;51139;45.626;6.850;2022-09-09T06:48:38;82066.53;;;12.81;60.82
64711;BME280;51139;45.626;6.850;2022-09-09T06:51:14;82063.72;;;13.20;58.96
64711;BME280;51139;45.626;6.850;2022-09-09T06:53:41;82063.00;;;13.93;57.60
64711;BME280;51139;45.626;6.850;2022-09-09T06:58:39;82062.91;;;14.24;54.31
64711;BME280;51139;45.626;6.850;2022-09-09T07:01:10;82051.66;;;14.48;54.48
64711;BME280;51139;45.626;6.850;2022-09-09T07:03:38;82060.00;;;14.76;53.93
64711;BME280;51139;45.626;6.850;2022-09-09T07:06:04;82057.63;;;14.92;53.95
64711;BME280;51139;45.626;6.850;2022-09-09T07:08:29;82062.56;;;14.73;54.52
64711;BME280;51139;45.626;6.850;2022-09-09T07:11:04;82057.06;;;15.05;52.67
64711;BME280;51139;45.626;6.850;2022-09-09T07:13:30;82066.03;;;15.45;50.50
64711;BME280;51139;45.626;6.850;2022-09-09T07:16:15;82058.13;;;15.83;49.00
64711;BME280;51139;45.626;6.850;2022-09-09T07:18:40;82062.00;;;15.68;50.26
64711;BME280;51139;45.626;6.850;2022-09-09T07:21:07;82063.16;;;15.89;49.92
64711;BME280;51139;45.626;6.850;2022-09-09T07:23:34;82071.03;;;15.87;49.75
64711;BME280;51139;45.626;6.850;2022-09-09T07:26:01;82071.63;;;15.73;49.73
64711;BME280;51139;45.626;6.850;2022-09-09T07:28:27;82072.91;;;15.72;49.36
64711;BME280;51139;45.626;6.850;2022-09-09T07:30:58;82070.59;;;15.79;50.05
64711;BME280;51139;45.626;6.850;2022-09-09T07:33:25;82056.66;;;16.04;49.04
64711;BME280;51139;45.626;6.850;2022-09-09T07:35:51;82069.84;;;16.38;47.34
64711;BME280;51139;45.626;6.850;2022-09-09T07:38:17;82071.56;;;16.83;46.57
64711;BME280;51139;45.626;6.850;2022-09-09T07:40:44;82075.63;;;16.46;44.45
64711;BME280;51139;45.626;6.850;2022-09-09T07:43:09;82067.66;;;16.98;41.26
64711;BME280;51139;45.626;6.850;2022-09-09T07:45:35;82072.16;;;16.69;43.33
64711;BME280;51139;45.626;6.850;2022-09-09T07:48:01;82068.88;;;16.83;40.87
64711;BME280;51139;45.626;6.850;2022-09-09T07:50:26;82059.16;;;17.95;39.39
64711;BME280;51139;45.626;6.850;2022-09-09T07:52:52;82063.44;;;17.86;39.52
64711;BME280;51139;45.626;6.850;2022-09-09T07:55:20;82063.91;;;17.69;39.74
64711;BME280;51139;45.626;6.850;2022-09-09T07:57:46;82079.19;;;16.62;46.78
64711;BME280;51139;45.626;6.850;2022-09-09T08:00:12;82078.50;;;17.26;40.44
64711;BME280;51139;45.626;6.850;2022-09-09T08:02:39;82069.66;;;18.17;40.40
64711;BME280;51139;45.626;6.850;2022-09-09T08:05:05;82075.97;;;18.23;38.74
64711;BME280;51139;45.626;6.850;2022-09-09T08:07:31;82083.03;;;17.63;35.84
64711;BME280;51139;45.626;6.850;2022-09-09T08:09:56;82081.47;;;17.06;39.95
64711;BME280;51139;45.626;6.850;2022-09-09T08:12:22;82072.72;;;18.25;36.96
64711;BME280;51139;45.626;6.850;2022-09-09T08:14:48;82079.22;;;17.80;39.29
64711;BME280;51139;45.626;6.850;2022-09-09T08:17:14;82093.31;;;16.77;40.67
64711;BME280;51139;45.626;6.850;2022-09-09T08:19:39;82080.91;;;17.87;39.77
64711;BME280;51139;45.626;6.850;2022-09-09T08:22:05;82080.72;;;17.83;38.96
64711;BME280;51139;45.626;6.850;2022-09-09T08:24:31;82093.56;;;16.69;43.58
64711;BME280;51139;45.626;6.850;2022-09-09T08:26:56;82092.41;;;17.10;41.74
64711;BME280;51139;45.626;6.850;2022-09-09T08:29:22;82088.50;;;16.49;44.16
64711;BME280;51139;45.626;6.850;2022-09-09T08:31:53;82094.94;;;16.32;42.05
64711;BME280;51139;45.626;6.850;2022-09-09T08:34:23;82095.66;;;17.09;40.90
64711;BME280;51139;45.626;6.850;2022-09-09T08:36:49;82091.81;;;16.24;42.43
64711;BME280;51139;45.626;6.850;2022-09-09T08:39:17;82094.38;;;16.72;42.13
64711;BME280;51139;45.626;6.850;2022-09-09T08:41:57;82092.22;;;16.56;42.37
64711;BME280;51139;45.626;6.850;2022-09-09T08:47:39;82095.88;;;15.78;42.82
64711;BME280;51139;45.626;6.850;2022-09-09T08:50:22;82104.22;;;16.43;42.24
64711;BME280;51139;45.626;6.850;2022-09-09T08:58:22;82105.31;;;16.02;39.60
64711;BME280;51139;45.626;6.850;2022-09-09T09:04:06;82117.28;;;16.01;35.69
64711;BME280;51139;45.626;6.850;2022-09-09T09:11:59;82113.00;;;15.15;41.07
64711;BME280;51139;45.626;6.850;2022-09-09T09:14:29;82106.88;;;15.36;39.24
64711;BME280;51139;45.626;6.850;2022-09-09T09:17:02;82107.84;;;15.07;38.89
64711;BME280;51139;45.626;6.850;2022-09-09T09:19:29;82106.88;;;15.36;37.10
64711;BME280;51139;45.626;6.850;2022-09-09T09:22:10;82111.22;;;14.52;42.19
64711;BME280;51139;45.626;6.850;2022-09-09T09:27:40;82109.41;;;15.34;35.89
64711;BME280;51139;45.626;6.850;2022-09-09T09:30:19;82105.94;;;15.43;35.30
64711;BME280;51139;45.626;6.850;2022-09-09T09:33:01;82113.94;;;15.43;38.30
64711;BME280;51139;45.626;6.850;2022-09-09T09:35:28;82110.97;;;15.61;42.46
64711;BME280;51139;45.626;6.850;2022-09-09T09:37:54;82102.91;;;15.25;42.19
64711;BME280;51139;45.626;6.850;2022-09-09T09:40:21;82107.31;;;14.75;38.55
64711;BME280;51139;45.626;6.850;2022-09-09T09:43:16;82105.94;;;15.31;39.57
64711;BME280;51139;45.626;6.850;2022-09-09T09:45:45;82106.78;;;15.00;38.46
64711;BME280;51139;45.626;6.850;2022-09-09T09:48:12;82112.81;;;15.58;35.80
64711;BME280;51139;45.626;6.850;2022-09-09T09:50:59;82114.66;;;15.44;34.64
64711;BME280;51139;45.626;6.850;2022-09-09T09:53:33;82114.06;;;15.45;33.30
64711;BME280;51139;45.626;6.850;2022-09-09T09:56:10;82104.91;;;14.91;33.56
64711;BME280;51139;45.626;6.850;2022-09-09T09:58:56;82106.72;;;15.10;32.89
64711;BME280;51139;45.626;6.850;2022-09-09T10:01:24;82101.72;;;15.16;35.86
64711;BME280;51139;45.626;6.850;2022-09-09T10:03:57;82105.59;;;15.25;33.27
64711;BME280;51139;45.626;6.850;2022-09-09T10:06:33;82101.19;;;15.30;34.66
64711;BME280;51139;45.626;6.850;2022-09-09T10:09:00;82097.06;;;15.05;34.51
64711;BME280;51139;45.626;6.850;2022-09-09T10:11:46;82099.00;;;14.93;33.20
64711;BME280;51139;45.626;6.850;2022-09-09T10:14:21;82093.44;;;14.88;33.71
64711;BME280;51139;45.626;6.850;2022-09-09T10:19:30;82090.66;;;14.98;30.82
64711;BME280;51139;45.626;6.850;2022-09-09T10:24:37;82071.44;;;15.00;31.94
64711;BME280;51139;45.626;6.850;2022-09-09T10:40:28;82072.66;;;14.87;29.75
64711;BME280;51139;45.626;6.850;2022-09-09T10:43:10;82084.34;;;15.15;29.48
64711;BME280;51139;45.626;6.850;2022-09-09T10:45:53;82072.00;;;14.98;29.20
64711;BME280;51139;45.626;6.850;2022-09-09T10:49:07;82085.50;;;15.12;28.80
64711;BME280;51139;45.626;6.850;2022-09-09T10:51:49;82080.31;;;15.38;31.07
64711;BME280;51139;45.626;6.850;2022-09-09T10:56:53;82077.25;;;15.08;30.35
64711;BME280;51139;45.626;6.850;2022-09-09T10:59:25;82085.31;;;15.44;29.39
64711;BME280;51139;45.626;6.850;2022-09-09T11:04:31;82067.19;;;15.30;30.40
64711;BME280;51139;45.626;6.850;2022-09-09T11:07:00;82072.16;;;15.12;31.13
64711;BME280;51139;45.626;6.850;2022-09-09T11:09:33;82068.53;;;14.96;31.02
64711;BME280;51139;45.626;6.850;2022-09-09T11:12:02;82076.41;;;14.94;33.04
64711;BME280;51139;45.626;6.850;2022-09-09T11:14:33;82073.03;;;15.74;29.32
64711;BME280;51139;45.626;6.850;2022-09-09T11:17:09;82075.19;;;15.30;30.96
64711;BME280;51139;45.626;6.850;2022-09-09T11:19:41;82073.69;;;15.39;32.15
64711;BME280;51139;45.626;6.850;2022-09-09T11:24:38;82075.28;;;15.21;30.30
64711;BME280;51139;45.626;6.850;2022-09-09T11:35:37;82068.13;;;15.23;30.19
64711;BME280;51139;45.626;6.850;2022-09-09T11:38:16;82077.06;;;15.40;28.69
64711;BME280;51139;45.626;6.850;2022-09-09T11:40:44;82069.84;;;15.42;28.04
64711;BME280;51139;45.626;6.850;2022-09-09T11:45:40;82067.09;;;15.52;30.11
64711;BME280;51139;45.626;6.850;2022-09-09T11:53:31;82065.91;;;15.43;27.68
64711;BME280;51139;45.626;6.850;2022-09-09T11:58:36;82056.53;;;15.54;29.03
64711;BME280;51139;45.626;6.850;2022-09-09T12:01:13;82054.44;;;15.76;30.32
64711;BME280;51139;45.626;6.850;2022-09-09T12:03:48;82062.78;;;16.18;30.40
64711;BME280;51139;45.626;6.850;2022-09-09T12:06:31;82076.75;;;16.05;28.02
64711;BME280;51139;45.626;6.850;2022-09-09T12:09:19;82065.25;;;15.79;27.96
64711;BME280;51139;45.626;6.850;2022-09-09T12:11:46;82065.66;;;15.15;27.65
64711;BME280;51139;45.626;6.850;2022-09-09T12:14:23;82064.31;;;15.74;28.10
64711;BME280;51139;45.626;6.850;2022-09-09T12:17:09;82067.78;;;15.76;28.39
64711;BME280;51139;45.626;6.850;2022-09-09T12:19:35;82075.66;;;15.86;29.82
64711;BME280;51139;45.626;6.850;2022-09-09T12:22:26;82072.25;;;16.33;28.42
64711;BME280;51139;45.626;6.850;2022-09-09T12:25:20;82071.34;;;16.41;28.43
64711;BME280;51139;45.626;6.850;2022-09-09T12:27:59;82069.75;;;16.24;27.57
64711;BME280;51139;45.626;6.850;2022-09-09T12:30:46;82070.81;;;15.71;28.09
64711;BME280;51139;45.626;6.850;2022-09-09T12:33:17;82070.13;;;16.06;27.63
64711;BME280;51139;45.626;6.850;2022-09-09T12:35:47;82073.34;;;16.16;27.96
64711;BME280;51139;45.626;6.850;2022-09-09T12:38:43;82070.91;;;16.21;28.16
64711;BME280;51139;45.626;6.850;2022-09-09T12:41:26;82074.41;;;15.75;27.96
64711;BME280;51139;45.626;6.850;2022-09-09T12:44:03;82075.09;;;16.12;28.13
64711;BME280;51139;45.626;6.850;2022-09-09T12:46:41;82081.69;;;16.34;26.21
64711;BME280;51139;45.626;6.850;2022-09-09T12:51:51;82075.41;;;16.42;26.95
64711;BME280;51139;45.626;6.850;2022-09-09T12:54:18;82073.13;;;16.12;26.76
64711;BME280;51139;45.626;6.850;2022-09-09T12:56:48;82078.00;;;16.16;27.58
64711;BME280;51139;45.626;6.850;2022-09-09T12:59:24;82072.09;;;15.58;27.55
64711;BME280;51139;45.626;6.850;2022-09-09T13:01:57;82081.16;;;15.76;28.68
64711;BME280;51139;45.626;6.850;2022-09-09T13:04:22;82071.75;;;15.87;28.88
64711;BME280;51139;45.626;6.850;2022-09-09T13:06:48;82073.09;;;16.24;29.16
64711;BME280;51139;45.626;6.850;2022-09-09T13:09:14;82066.91;;;16.33;28.81
64711;BME280;51139;45.626;6.850;2022-09-09T13:11:46;82067.53;;;15.84;27.05
64711;BME280;51139;45.626;6.850;2022-09-09T13:14:28;82066.84;;;15.72;29.99
64711;BME280;51139;45.626;6.850;2022-09-09T13:16:59;82067.91;;;15.79;29.36
64711;BME280;51139;45.626;6.850;2022-09-09T13:19:29;82066.28;;;15.97;30.66
64711;BME280;51139;45.626;6.850;2022-09-09T13:21:56;82074.72;;;16.29;29.05
64711;BME280;51139;45.626;6.850;2022-09-09T13:24:27;82072.97;;;16.22;28.21
64711;BME280;51139;45.626;6.850;2022-09-09T13:27:28;82073.09;;;16.24;28.47
64711;BME280;51139;45.626;6.850;2022-09-09T13:29:55;82074.97;;;16.10;30.85
64711;BME280;51139;45.626;6.850;2022-09-09T13:32:23;82080.09;;;16.05;30.32
64711;BME280;51139;45.626;6.850;2022-09-09T13:34:56;82071.19;;;16.01;31.01
64711;BME280;51139;45.626;6.850;2022-09-09T13:37:37;82076.41;;;15.99;33.11
64711;BME280;51139;45.626;6.850;2022-09-09T13:40:04;82066.69;;;16.29;33.32
64711;BME280;51139;45.626;6.850;2022-09-09T13:42:34;82066.59;;;16.27;33.46
64711;BME280;51139;45.626;6.850;2022-09-09T13:45:03;82079.25;;;16.27;30.41
64711;BME280;51139;45.626;6.850;2022-09-09T13:47:33;82066.69;;;16.29;33.42
64711;BME280;51139;45.626;6.850;2022-09-09T13:52:47;82058.03;;;15.81;32.63
64711;BME280;51139;45.626;6.850;2022-09-09T13:55:15;82060.34;;;15.75;30.75
64711;BME280;51139;45.626;6.850;2022-09-09T13:57:50;82075.91;;;15.79;33.09
64711;BME280;51139;45.626;6.850;2022-09-09T14:00:16;82064.75;;;15.35;31.24
64711;BME280;51139;45.626;6.850;2022-09-09T14:02:42;82077.53;;;15.84;31.56
64711;BME280;51139;45.626;6.850;2022-09-09T14:05:09;82074.66;;;15.80;31.66
64711;BME280;51139;45.626;6.850;2022-09-09T14:07:36;82070.59;;;15.90;30.66
64711;BME280;51139;45.626;6.850;2022-09-09T14:10:04;82078.00;;;16.16;31.02
64711;BME280;51139;45.626;6.850;2022-09-09T14:12:29;82080.78;;;15.82;30.97
64711;BME280;51139;45.626;6.850;2022-09-09T14:14:55;82078.00;;;15.80;31.22
64711;BME280;51139;45.626;6.850;2022-09-09T14:17:20;82081.84;;;15.89;30.81
64711;BME280;51139;45.626;6.850;2022-09-09T14:19:47;82075.13;;;15.88;31.91
64711;BME280;51139;45.626;6.850;2022-09-09T14:22:12;82083.59;;;15.96;31.06
64711;BME280;51139;45.626;6.850;2022-09-09T14:24:38;82083.00;;;15.86;29.94
64711;BME280;51139;45.626;6.850;2022-09-09T14:27:03;82084.50;;;15.77;31.35
64711;BME280;51139;45.626;6.850;2022-09-09T14:29:28;82078.25;;;15.72;31.06
64711;BME280;51139;45.626;6.850;2022-09-09T14:31:54;82079.25;;;15.43;31.58
64711;BME280;51139;45.626;6.850;2022-09-09T14:34:19;82081.47;;;15.23;32.06
64711;BME280;51139;45.626;6.850;2022-09-09T14:36:45;82085.97;;;15.09;32.98
64711;BME280;51139;45.626;6.850;2022-09-09T14:39:10;82101.56;;;15.60;33.29
64711;BME280;51139;45.626;6.850;2022-09-09T14:41:36;82090.81;;;15.12;34.71
64711;BME280;51139;45.626;6.850;2022-09-09T14:44:02;82094.38;;;14.59;34.72
64711;BME280;51139;45.626;6.850;2022-09-09T14:46:27;82106.16;;;15.24;34.69
64711;BME280;51139;45.626;6.850;2022-09-09T14:48:53;82107.06;;;15.05;35.56
64711;BME280;51139;45.626;6.850;2022-09-09T14:51:21;82087.16;;;15.29;34.02
64711;BME280;51139;45.626;6.850;2022-09-09T14:53:55;82097.97;;;14.64;33.37
64711;BME280;51139;45.626;6.850;2022-09-09T14:56:24;82094.91;;;14.58;34.15
64711;BME280;51139;45.626;6.850;2022-09-09T14:58:50;82094.50;;;14.40;35.16
64711;BME280;51139;45.626;6.850;2022-09-09T15:01:18;82104.50;;;14.51;34.95
64711;BME280;51139;45.626;6.850;2022-09-09T15:03:52;82111.88;;;14.96;35.96
64711;BME280;51139;45.626;6.850;2022-09-09T15:06:18;82111.97;;;14.86;36.99
64711;BME280;51139;45.626;6.850;2022-09-09T15:08:45;82116.25;;;15.37;36.46
64711;BME280;51139;45.626;6.850;2022-09-09T15:11:12;82111.38;;;14.76;36.96
64711;BME280;51139;45.626;6.850;2022-09-09T15:13:39;82110.22;;;14.14;36.92